Time;durP1;ratioP1;P1;durP2;ratioP2;P2;SDS_P1;SDS_P2;PMS_P1;PMS_P2;Temp;Humidity;BMP_temperature;BMP_pressure;BME280_temperature;BME280_humidity;BME280_pressure;Samples;Min_cycle;Max_cycle;Signal;HPM_P1;HPM_P2
2023/05/17 04:13:16;;;;;;;;;;;;;;;11.61;55.37;96866.94;4248541;27;10185;-67
2023/05/17 04:15:19;;;;;;;;;;;;;;;11.85;55.36;96883.34;4245836;27;5865;-66
2023/05/17 04:17:23;;;;;;;;;;;;;;;12.06;54.81;96880.56;4241970;27;5594;-66
2023/05/17 04:19:26;;;;;;;;;;;;;;;12.26;54.74;96882.44;4248645;27;5613;-65
2023/05/17 04:21:30;;;;;;;;;;;;;;;12.37;54.17;96880.00;4240160;27;5665;-66
2023/05/17 04:23:34;;;;;;;;;;;;;;;12.43;53.70;96875.72;4246156;27;5524;-68
2023/05/17 04:25:36;;;;;;;;;;;;;;;12.49;53.82;96882.88;4243908;27;5640;-65
2023/05/17 04:27:39;;;;;;;;;;;;;;;12.54;53.67;96878.59;4248251;27;5820;-65
2023/05/17 04:29:43;;;;;;;;;;;;;;;12.64;53.61;96880.03;4248273;27;5746;-66
2023/05/17 04:31:48;;;;;;;;;;;;;;;12.68;53.13;96886.53;4248328;27;5828;-66
2023/05/17 04:33:50;;;;;;;;;;;;;;;12.73;52.80;96881.47;4248463;27;5840;-66
2023/05/17 04:35:55;;;;;;;;;;;;;;;12.73;52.54;96882.28;4243978;27;5677;-67
2023/05/17 04:37:58;;;;;;;;;;;;;;;12.69;52.34;96878.41;4239958;27;5844;-66
2023/05/17 04:40:01;;;;;;;;;;;;;;;12.70;52.47;96885.34;4240105;27;5609;-67
2023/05/17 04:42:04;;;;;;;;;;;;;;;12.74;52.34;96897.16;4248453;27;5099;-67
2023/05/17 04:44:07;;;;;;;;;;;;;;;12.78;52.22;96882.47;4240673;27;7707;-67
2023/05/17 04:46:11;;;;;;;;;;;;;;;12.86;52.02;96897.38;4245792;27;5621;-67
2023/05/17 04:48:15;;;;;;;;;;;;;;;12.80;52.01;96893.72;4239880;27;5599;-68
2023/05/17 04:50:19;;;;;;;;;;;;;;;12.83;51.86;96903.09;4247252;27;5666;-66
2023/05/17 04:52:22;;;;;;;;;;;;;;;12.86;51.86;96899.22;4247680;27;5779;-67
2023/05/17 04:54:26;;;;;;;;;;;;;;;12.91;51.53;96896.75;4247777;27;5759;-67
2023/05/17 04:56:29;;;;;;;;;;;;;;;12.94;51.59;96889.22;4245616;27;5609;-66
2023/05/17 04:58:32;;;;;;;;;;;;;;;12.98;51.50;96898.38;4243870;27;5888;-66
2023/05/17 05:00:35;;;;;;;;;;;;;;;12.98;51.32;96908.19;4246836;27;6860;-66
2023/05/17 05:02:39;;;;;;;;;;;;;;;12.93;51.46;96900.03;4240359;27;5919;-66
2023/05/17 05:04:42;;;;;;;;;;;;;;;12.92;51.06;96893.09;4242480;27;5909;-66
2023/05/17 05:06:46;;;;;;;;;;;;;;;12.91;51.49;96902.91;4244212;27;5718;-66
2023/05/17 05:08:48;;;;;;;;;;;;;;;12.94;51.02;96906.97;4247705;27;5692;-66
2023/05/17 05:10:51;;;;;;;;;;;;;;;12.93;51.16;96902.69;4234812;27;5669;-66
2023/05/17 05:12:56;;;;;;;;;;;;;;;12.90;50.72;96909.19;4236968;27;5637;-66
2023/05/17 05:14:59;;;;;;;;;;;;;;;12.90;51.07;96908.38;4231290;28;5598;-69
2023/05/17 05:17:03;;;;;;;;;;;;;;;12.90;50.85;96909.19;4231085;28;5613;-67
2023/05/17 05:19:08;;;;;;;;;;;;;;;12.91;50.90;96910.84;4234417;28;5787;-66
2023/05/17 05:21:12;;;;;;;;;;;;;;;12.90;50.63;96916.34;4236130;28;5610;-65
2023/05/17 05:23:17;;;;;;;;;;;;;;;12.89;50.84;96904.09;4220533;28;5734;-65
2023/05/17 05:25:20;;;;;;;;;;;;;;;12.94;50.47;96922.88;4236049;28;5626;-66
2023/05/17 05:27:23;;;;;;;;;;;;;;;12.96;50.48;96923.50;4232895;28;5614;-66
2023/05/17 05:29:26;;;;;;;;;;;;;;;12.93;50.52;96923.91;4231149;28;5602;-66
2023/05/17 05:31:29;;;;;;;;;;;;;;;12.92;50.56;96914.31;4233517;28;5712;-66
2023/05/17 05:33:32;;;;;;;;;;;;;;;13.01;50.40;96926.34;4228275;27;5772;-65
2023/05/17 05:35:37;;;;;;;;;;;;;;;13.06;50.29;96921.25;4226699;28;5674;-65
2023/05/17 05:37:40;;;;;;;;;;;;;;;13.07;50.15;96918.38;4229170;28;5768;-65
2023/05/17 05:39:42;;;;;;;;;;;;;;;13.08;49.93;96922.66;4227380;28;5820;-65
2023/05/17 05:41:46;;;;;;;;;;;;;;;13.12;49.96;96931.03;4209391;28;5708;-65
2023/05/17 05:43:49;;;;;;;;;;;;;;;13.23;49.70;96935.75;4231184;28;5753;-65
2023/05/17 05:45:51;;;;;;;;;;;;;;;13.30;49.58;96933.91;4227426;28;5830;-66
2023/05/17 05:47:55;;;;;;;;;;;;;;;13.36;49.61;96933.09;4232953;28;5615;-66
2023/05/17 05:49:58;;;;;;;;;;;;;;;13.46;49.55;96932.63;4229502;28;5597;-65
2023/05/17 05:52:02;;;;;;;;;;;;;;;13.48;49.39;96927.97;4228061;28;5626;-65
2023/05/17 05:54:05;;;;;;;;;;;;;;;13.56;49.54;96929.56;4235439;28;5110;-66
2023/05/17 05:56:08;;;;;;;;;;;;;;;13.62;49.12;96926.09;4234899;28;5618;-65
2023/05/17 05:58:11;;;;;;;;;;;;;;;13.66;49.36;96925.44;4235788;28;6322;-65
2023/05/17 06:00:17;;;;;;;;;;;;;;;13.69;48.98;96933.00;4234055;28;5602;-65
2023/05/17 06:02:20;;;;;;;;;;;;;;;13.76;48.81;96927.66;4229688;28;5812;-65
2023/05/17 06:04:23;;;;;;;;;;;;;;;13.82;48.76;96934.00;4233617;28;6749;-65
2023/05/17 06:06:46;;;;;;;;;;;;;;;13.90;48.77;96936.41;4230904;28;5364;-65
2023/05/17 06:08:50;;;;;;;;;;;;;;;13.88;48.36;96923.31;4233587;28;7675;-65
2023/05/17 06:10:53;;;;;;;;;;;;;;;13.86;48.44;96930.69;4232994;28;5667;-65
2023/05/17 06:12:56;;;;;;;;;;;;;;;13.95;48.46;96925.97;4228072;28;5669;-65
2023/05/17 06:14:59;;;;;;;;;;;;;;;13.96;48.32;96925.75;4235365;28;5610;-65
2023/05/17 06:17:02;;;;;;;;;;;;;;;13.97;48.20;96929.22;4235592;28;5672;-65
2023/05/17 06:19:05;;;;;;;;;;;;;;;13.95;48.27;96934.75;4226933;28;5594;-65
2023/05/17 06:21:08;;;;;;;;;;;;;;;13.95;48.19;96945.38;4235590;28;5825;-65
2023/05/17 06:23:11;;;;;;;;;;;;;;;13.96;48.04;96933.72;4235639;28;5597;-65
2023/05/17 06:25:16;;;;;;;;;;;;;;;13.92;48.16;96937.81;4225760;28;5693;-65
2023/05/17 06:27:19;;;;;;;;;;;;;;;13.93;47.86;96947.44;4231606;28;5696;-65
2023/05/17 06:29:22;;;;;;;;;;;;;;;13.99;47.97;96954.56;4228448;28;5942;-64
2023/05/17 06:31:26;;;;;;;;;;;;;;;14.05;47.78;96944.13;4220220;28;6912;-65
2023/05/17 06:33:28;;;;;;;;;;;;;;;14.21;47.84;96949.75;4226582;28;5895;-65
2023/05/17 06:35:32;;;;;;;;;;;;;;;14.35;47.89;96942.53;4233023;28;5079;-65
2023/05/17 06:37:49;;;;;;;;;;;;;;;14.48;47.42;96939.81;4235255;28;5754;-65
2023/05/17 06:39:52;;;;;;;;;;;;;;;14.56;47.53;96942.22;4220064;27;5882;-68
2023/05/17 06:42:12;;;;;;;;;;;;;;;14.57;47.12;96948.38;4224090;28;5590;-63
2023/05/17 06:44:15;;;;;;;;;;;;;;;14.54;47.47;96968.25;4224662;28;5640;-64
2023/05/17 06:46:18;;;;;;;;;;;;;;;14.49;47.27;96952.09;4223511;28;5612;-65
2023/05/17 06:48:21;;;;;;;;;;;;;;;14.49;47.14;96951.28;4218731;28;5801;-63
2023/05/17 06:50:27;;;;;;;;;;;;;;;14.51;47.00;96955.38;4227899;28;5713;-63
2023/05/17 06:52:30;;;;;;;;;;;;;;;14.47;47.19;96951.50;4224789;28;5625;-63
2023/05/17 06:54:33;;;;;;;;;;;;;;;14.40;47.16;96953.34;4224631;28;5710;-63
2023/05/17 06:56:36;;;;;;;;;;;;;;;14.30;47.21;96960.97;4226562;27;5768;-63
2023/05/17 06:58:40;;;;;;;;;;;;;;;14.35;47.35;96963.00;4226537;28;5706;-63
2023/05/17 07:00:43;;;;;;;;;;;;;;;14.39;47.26;96957.06;4230900;28;5084;-63
2023/05/17 07:02:46;;;;;;;;;;;;;;;14.40;47.26;96964.00;4223773;28;7712;-64
2023/05/17 07:04:49;;;;;;;;;;;;;;;14.41;47.16;96954.16;4224765;28;5613;-63
2023/05/17 07:06:52;;;;;;;;;;;;;;;14.36;46.73;96952.13;4233870;28;5661;-63
2023/05/17 07:08:55;;;;;;;;;;;;;;;14.39;47.06;96941.09;4228201;28;5862;-63
2023/05/17 07:10:58;;;;;;;;;;;;;;;14.41;46.85;96954.16;4226093;28;5673;-64
2023/05/17 07:13:03;;;;;;;;;;;;;;;14.29;46.84;96946.06;4218053;28;5625;-63
2023/05/17 07:15:11;;;;;;;;;;;;;;;14.26;46.99;96954.44;4233289;28;5812;-65
2023/05/17 07:17:14;;;;;;;;;;;;;;;14.27;46.92;96962.22;4230623;28;5764;-65
2023/05/17 07:19:18;;;;;;;;;;;;;;;14.30;46.72;96984.91;4225033;28;5849;-62
2023/05/17 07:21:23;;;;;;;;;;;;;;;14.26;46.92;96965.06;4232104;28;6562;-63
2023/05/17 07:23:26;;;;;;;;;;;;;;;14.21;46.72;96967.56;4226178;28;5894;-62
2023/05/17 07:25:32;;;;;;;;;;;;;;;14.16;46.81;96968.22;4226599;28;5697;-64
2023/05/17 07:27:35;;;;;;;;;;;;;;;14.17;46.99;96967.19;4228398;28;6004;-63
2023/05/17 07:29:40;;;;;;;;;;;;;;;14.19;46.91;96989.03;4234007;28;5796;-66
2023/05/17 07:31:45;;;;;;;;;;;;;;;14.16;47.03;96981.50;4232717;28;5084;-68
2023/05/17 07:33:48;;;;;;;;;;;;;;;14.11;46.83;96986.63;4215081;28;5744;-67
2023/05/17 07:35:51;;;;;;;;;;;;;;;14.17;46.82;96979.66;4230576;28;5594;-68
2023/05/17 07:37:55;;;;;;;;;;;;;;;14.21;47.06;96992.31;4233373;28;5793;-69
2023/05/17 07:39:58;;;;;;;;;;;;;;;14.27;46.87;96988.00;4222615;28;5593;-68
2023/05/17 07:42:01;;;;;;;;;;;;;;;14.27;46.90;96980.84;4232478;28;5598;-69
2023/05/17 07:44:07;;;;;;;;;;;;;;;14.33;46.91;97000.44;4229052;28;5673;-68
2023/05/17 07:46:10;;;;;;;;;;;;;;;14.36;46.84;96980.56;4226822;27;5602;-70
2023/05/17 07:48:14;;;;;;;;;;;;;;;14.39;46.46;96975.66;4214349;28;5697;-69
2023/05/17 07:50:17;;;;;;;;;;;;;;;14.37;46.66;96991.00;4225116;28;5788;-70
2023/05/17 07:52:20;;;;;;;;;;;;;;;14.36;46.63;96975.25;4225069;28;5681;-70
2023/05/17 07:54:25;;;;;;;;;;;;;;;14.37;46.53;96983.00;4233998;28;5582;-70
2023/05/17 07:56:28;;;;;;;;;;;;;;;14.36;46.31;96981.38;4234140;28;5602;-70
2023/05/17 07:58:31;;;;;;;;;;;;;;;14.36;46.21;96972.59;4231434;28;5816;-70
2023/05/17 08:00:34;;;;;;;;;;;;;;;14.36;46.60;96984.03;4228379;28;5597;-69
2023/05/17 08:02:37;;;;;;;;;;;;;;;14.38;46.21;96978.50;4224612;27;5745;-70
2023/05/17 08:04:42;;;;;;;;;;;;;;;14.36;46.58;96978.72;4230758;28;5630;-68
2023/05/17 08:06:47;;;;;;;;;;;;;;;14.46;46.48;96989.75;4226356;28;5725;-69
2023/05/17 08:08:52;;;;;;;;;;;;;;;14.54;46.31;96992.19;4216657;28;5835;-69
2023/05/17 08:10:55;;;;;;;;;;;;;;;14.61;46.18;96996.63;4230463;28;5665;-69
2023/05/17 08:12:58;;;;;;;;;;;;;;;14.54;46.10;96981.53;4232440;28;5594;-69
2023/05/17 08:15:00;;;;;;;;;;;;;;;14.50;45.97;96995.50;4232942;28;5671;-69
2023/05/17 08:17:05;;;;;;;;;;;;;;;14.44;46.01;96991.81;4232873;28;5752;-69
2023/05/17 08:19:12;;;;;;;;;;;;;;;14.35;45.98;96977.09;4229998;28;5738;-69
2023/05/17 08:21:17;;;;;;;;;;;;;;;14.35;46.26;96997.56;4224737;28;5753;-69
2023/05/17 08:23:20;;;;;;;;;;;;;;;14.31;46.01;96986.53;4231129;28;5590;-69
2023/05/17 08:25:24;;;;;;;;;;;;;;;14.30;46.22;96978.78;4232134;28;5590;-68
2023/05/17 08:27:29;;;;;;;;;;;;;;;14.31;46.19;96985.72;4231374;28;5716;-69
2023/05/17 08:29:32;;;;;;;;;;;;;;;14.30;46.22;96982.25;4223584;28;6460;-70
2023/05/17 08:31:36;;;;;;;;;;;;;;;14.32;45.98;96988.16;4233628;28;5606;-70
2023/05/17 08:33:39;;;;;;;;;;;;;;;14.35;46.14;96987.75;4229687;28;6390;-69
2023/05/17 08:35:43;;;;;;;;;;;;;;;14.42;46.35;96985.88;4224814;28;5669;-69
2023/05/17 08:37:50;;;;;;;;;;;;;;;14.54;46.09;96997.50;4224437;28;5820;-68
2023/05/17 08:39:53;;;;;;;;;;;;;;;14.63;46.20;96991.94;4231335;28;5236;-68
2023/05/17 08:41:58;;;;;;;;;;;;;;;14.65;46.11;97013.81;4224633;28;7672;-69
2023/05/17 08:44:03;;;;;;;;;;;;;;;14.65;45.87;96993.34;4226606;28;5752;-69
2023/05/17 08:46:06;;;;;;;;;;;;;;;14.57;45.97;97010.38;4224846;28;5655;-69
2023/05/17 08:48:10;;;;;;;;;;;;;;;14.59;46.22;97009.34;4224661;28;5612;-68
2023/05/17 08:50:13;;;;;;;;;;;;;;;14.60;45.92;96997.66;4235411;28;5622;-68
2023/05/17 08:52:18;;;;;;;;;;;;;;;14.66;45.86;97007.47;4236037;28;5610;-69
2023/05/17 08:54:23;;;;;;;;;;;;;;;14.65;45.82;97013.81;4229909;28;5801;-69
2023/05/17 08:56:30;;;;;;;;;;;;;;;14.61;45.71;97020.56;4234476;28;5700;-69
2023/05/17 08:58:36;;;;;;;;;;;;;;;14.56;45.77;97022.03;4222600;28;5912;-69
2023/05/17 09:00:59;;;;;;;;;;;;;;;14.60;45.91;97016.28;4232962;28;5780;-68
2023/05/17 09:03:02;;;;;;;;;;;;;;;14.56;45.71;97024.69;4232505;28;5866;-69
2023/05/17 09:05:06;;;;;;;;;;;;;;;14.56;45.77;97005.25;4235344;28;5597;-68
2023/05/17 09:07:09;;;;;;;;;;;;;;;14.57;45.75;97018.34;4231635;28;5598;-68
2023/05/17 09:09:12;;;;;;;;;;;;;;;14.58;45.77;97013.84;4227877;28;5621;-68
2023/05/17 09:11:24;;;;;;;;;;;;;;;14.67;45.82;97028.53;4227966;28;5677;-70
2023/05/17 09:13:27;;;;;;;;;;;;;;;14.73;45.61;97034.88;4233077;28;5697;-68
2023/05/17 09:15:33;;;;;;;;;;;;;;;14.74;45.38;97029.31;4227865;28;5850;-68
2023/05/17 09:17:36;;;;;;;;;;;;;;;14.76;45.75;97029.94;4233579;28;5590;-68
2023/05/17 09:19:44;;;;;;;;;;;;;;;14.79;45.53;97031.34;4232429;28;5666;-67
2023/05/17 09:21:47;;;;;;;;;;;;;;;14.77;45.49;97017.44;4232584;28;5876;-67
2023/05/17 09:23:54;;;;;;;;;;;;;;;14.81;45.33;97023.94;4227623;28;5693;-68
2023/05/17 09:26:09;;;;;;;;;;;;;;;14.87;45.32;97028.44;4228359;28;6528;-70
2023/05/17 09:28:13;;;;;;;;;;;;;;;14.86;45.46;97026.81;4227870;28;5824;-69
2023/05/17 09:30:16;;;;;;;;;;;;;;;14.87;45.40;97020.44;4235377;28;5606;-68
2023/05/17 09:32:20;;;;;;;;;;;;;;;14.93;45.35;97010.78;4227671;28;5709;-69
2023/05/17 09:34:24;;;;;;;;;;;;;;;15.03;45.25;97024.44;4220524;28;5674;-69
2023/05/17 09:36:28;;;;;;;;;;;;;;;15.08;45.15;97017.44;4226319;28;5616;-69
2023/05/17 09:38:31;;;;;;;;;;;;;;;15.13;45.07;97032.75;4235784;28;5692;-69
2023/05/17 09:40:38;;;;;;;;;;;;;;;15.17;44.89;97046.44;4236029;28;5594;-69
2023/05/17 09:42:41;;;;;;;;;;;;;;;15.15;44.87;97026.19;4235659;28;5715;-69
2023/05/17 09:44:54;;;;;;;;;;;;;;;15.22;45.08;97035.97;4231481;28;5748;-68
2023/05/17 09:46:58;;;;;;;;;;;;;;;15.28;45.06;97043.09;4235428;28;5764;-70
2023/05/17 09:49:01;;;;;;;;;;;;;;;15.37;45.11;97063.09;4235719;28;5684;-70
2023/05/17 09:51:06;;;;;;;;;;;;;;;15.37;44.89;97039.13;4227163;28;5854;-69
2023/05/17 09:53:23;;;;;;;;;;;;;;;15.42;44.96;97056.09;4227312;28;5602;-69
2023/05/17 09:55:28;;;;;;;;;;;;;;;15.47;44.61;97052.78;4220750;28;5673;-69
2023/05/17 09:57:38;;;;;;;;;;;;;;;15.50;44.93;97052.34;4235822;28;5773;-69
2023/05/17 09:59:42;;;;;;;;;;;;;;;15.56;44.53;97051.47;4231227;28;5685;-70
2023/05/17 10:01:53;;;;;;;;;;;;;;;15.62;44.70;97069.28;4231701;28;5677;-70
2023/05/17 10:03:59;;;;;;;;;;;;;;;15.63;44.39;97059.47;4231996;28;5717;-70
2023/05/17 10:06:06;;;;;;;;;;;;;;;15.59;44.74;97060.88;4235346;28;5601;-70
2023/05/17 10:08:10;;;;;;;;;;;;;;;15.55;44.46;97047.19;4227563;28;5752;-70
2023/05/17 10:10:13;;;;;;;;;;;;;;;15.54;44.48;97056.22;4227200;28;5683;-69
2023/05/17 10:12:18;;;;;;;;;;;;;;;15.55;44.54;97052.50;4234596;28;5704;-70
2023/05/17 10:14:25;;;;;;;;;;;;;;;15.53;44.73;97051.09;4228241;28;5652;-69
2023/05/17 10:16:29;;;;;;;;;;;;;;;15.58;44.44;97064.56;4235449;28;6742;-70
2023/05/17 10:18:34;;;;;;;;;;;;;;;15.60;44.58;97059.88;4226985;28;5748;-70
2023/05/17 10:20:39;;;;;;;;;;;;;;;15.63;44.56;97062.13;4227408;28;5605;-70
2023/05/17 10:22:42;;;;;;;;;;;;;;;15.72;44.54;97071.44;4235397;28;5724;-70
2023/05/17 10:24:47;;;;;;;;;;;;;;;15.77;44.25;97065.47;4235472;28;5601;-70
2023/05/17 10:26:50;;;;;;;;;;;;;;;15.71;44.24;97056.50;4226987;28;5636;-70
2023/05/17 10:28:59;;;;;;;;;;;;;;;15.67;44.30;97071.31;4228267;28;5731;-70
2023/05/17 10:31:03;;;;;;;;;;;;;;;15.72;44.25;97072.25;4233577;28;5685;-70
2023/05/17 10:33:07;;;;;;;;;;;;;;;15.76;44.21;97074.50;4227266;28;5702;-68
2023/05/17 10:35:13;;;;;;;;;;;;;;;15.80;44.21;97065.03;4234855;28;5660;-68
2023/05/17 10:37:19;;;;;;;;;;;;;;;15.86;44.04;97056.16;4227351;28;5594;-68
2023/05/17 10:39:22;;;;;;;;;;;;;;;15.90;44.18;97060.03;4225428;28;5657;-68
2023/05/17 10:41:30;;;;;;;;;;;;;;;15.88;43.81;97062.09;4235246;28;5613;-69
2023/05/17 10:43:34;;;;;;;;;;;;;;;15.85;43.87;97052.66;4234921;28;5662;-69
2023/05/17 10:45:37;;;;;;;;;;;;;;;15.92;44.07;97055.28;4231397;28;5670;-69
2023/05/17 10:47:41;;;;;;;;;;;;;;;15.85;43.80;97038.53;4230713;28;5705;-69
2023/05/17 10:49:46;;;;;;;;;;;;;;;15.80;43.85;97044.53;4234893;28;5610;-68
2023/05/17 10:51:51;;;;;;;;;;;;;;;15.79;43.83;97052.75;4229548;28;6597;-69
2023/05/17 10:54:09;;;;;;;;;;;;;;;15.72;43.50;97047.47;4230739;28;5703;-70
2023/05/17 10:56:12;;;;;;;;;;;;;;;15.75;43.85;97047.03;4226276;28;5830;-69
2023/05/17 10:58:17;;;;;;;;;;;;;;;15.72;43.55;97042.94;4226690;28;5795;-69
2023/05/17 11:00:21;;;;;;;;;;;;;;;15.77;43.58;97034.31;4235055;28;5618;-68
2023/05/17 11:02:24;;;;;;;;;;;;;;;15.81;43.78;97048.00;4234486;28;5718;-69
2023/05/17 11:04:33;;;;;;;;;;;;;;;15.88;43.72;97048.75;4232487;28;5702;-69
2023/05/17 11:06:40;;;;;;;;;;;;;;;15.82;43.30;97046.97;4230077;28;5606;-69
2023/05/17 11:08:46;;;;;;;;;;;;;;;15.79;43.58;97052.75;4226163;28;5601;-68
2023/05/17 11:11:09;;;;;;;;;;;;;;;15.80;43.52;97059.69;4234182;28;5770;-69
2023/05/17 11:13:22;;;;;;;;;;;;;;;15.82;43.33;97057.63;4228246;28;5680;-69
2023/05/17 11:15:26;;;;;;;;;;;;;;;15.82;42.95;97030.97;4219575;28;5186;-69
2023/05/17 11:17:35;;;;;;;;;;;;;;;15.85;42.94;97046.50;4234424;28;5634;-69
2023/05/17 11:19:38;;;;;;;;;;;;;;;15.83;42.90;97040.59;4234034;28;5646;-69
2023/05/17 11:21:48;;;;;;;;;;;;;;;15.87;42.79;97050.63;4225723;28;5518;-68
2023/05/17 11:23:56;;;;;;;;;;;;;;;15.92;42.56;97049.94;4228884;28;5987;-69
2023/05/17 11:26:15;;;;;;;;;;;;;;;16.01;42.62;97037.97;4223907;28;7279;-69
2023/05/17 11:28:20;;;;;;;;;;;;;;;16.09;42.14;97058.19;4226676;28;5099;-69
2023/05/17 11:30:30;;;;;;;;;;;;;;;16.07;42.30;97044.25;4231801;28;5601;-68
2023/05/17 11:32:33;;;;;;;;;;;;;;;16.08;42.10;97045.88;4215780;28;5732;-69
2023/05/17 11:34:36;;;;;;;;;;;;;;;16.05;41.98;97073.81;4220565;28;5692;-69
2023/05/17 11:36:50;;;;;;;;;;;;;;;16.03;42.14;97049.22;4225475;28;5598;-69
2023/05/17 11:39:13;;;;;;;;;;;;;;;16.05;41.84;97041.00;4234235;28;5639;-70
2023/05/17 11:41:18;;;;;;;;;;;;;;;16.05;42.09;97054.31;4218917;28;7962;-69
2023/05/17 11:43:27;;;;;;;;;;;;;;;16.12;41.87;97073.75;4230892;28;5875;-68
2023/05/17 11:45:41;;;;;;;;;;;;;;;16.04;41.81;97050.84;4233065;28;5606;-69
2023/05/17 11:47:48;;;;;;;;;;;;;;;16.04;41.72;97052.69;4227033;28;5598;-69
2023/05/17 11:49:53;;;;;;;;;;;;;;;16.06;41.74;97045.28;4230942;28;5594;-69
2023/05/17 11:51:58;;;;;;;;;;;;;;;16.11;41.29;97046.25;4223048;28;5925;-68
2023/05/17 11:54:05;;;;;;;;;;;;;;;16.15;41.57;97036.78;4227069;28;5597;-69
2023/05/17 11:56:10;;;;;;;;;;;;;;;16.12;41.15;97047.06;4233007;28;5087;-69
2023/05/17 11:58:14;;;;;;;;;;;;;;;16.10;41.06;97052.63;4233432;28;5669;-70
2023/05/17 12:00:26;;;;;;;;;;;;;;;16.08;41.30;97041.34;4229771;28;5761;-70
2023/05/17 12:02:31;;;;;;;;;;;;;;;16.17;41.33;97040.03;4233585;28;5760;-71
2023/05/17 12:04:37;;;;;;;;;;;;;;;16.26;41.27;97045.88;4233542;28;5655;-70
2023/05/17 12:06:41;;;;;;;;;;;;;;;16.31;41.17;97030.03;4225161;28;5653;-71
2023/05/17 12:08:46;;;;;;;;;;;;;;;16.37;41.12;97039.00;4220972;28;5737;-72
2023/05/17 12:10:50;;;;;;;;;;;;;;;16.35;41.16;97065.91;4225838;28;5693;-72
2023/05/17 12:12:56;;;;;;;;;;;;;;;16.24;41.00;97046.13;4232112;28;5586;-71
2023/05/17 12:14:59;;;;;;;;;;;;;;;16.22;41.28;97048.19;4232469;28;5809;-72
2023/05/17 12:17:06;;;;;;;;;;;;;;;16.21;41.22;97032.41;4233155;28;5591;-73
2023/05/17 12:19:17;;;;;;;;;;;;;;;16.22;41.21;97037.53;4229529;28;5601;-70
2023/05/17 12:21:20;;;;;;;;;;;;;;;16.19;40.88;97032.63;4231242;28;5610;-71
2023/05/17 12:23:29;;;;;;;;;;;;;;;16.19;40.89;97026.47;4234610;28;6276;-70
2023/05/17 12:25:32;;;;;;;;;;;;;;;16.27;41.13;97028.84;4232981;28;5768;-72
2023/05/17 12:27:34;;;;;;;;;;;;;;;16.35;41.12;97083.75;4229452;28;5792;-71
2023/05/17 12:29:39;;;;;;;;;;;;;;;16.35;40.72;97065.91;4235150;28;5730;-71
2023/05/17 12:31:45;;;;;;;;;;;;;;;16.28;40.43;97041.94;4229769;28;5661;-72
2023/05/17 12:33:49;;;;;;;;;;;;;;;16.27;40.75;97026.97;4233198;28;5744;-71
2023/05/17 12:35:53;;;;;;;;;;;;;;;16.30;40.66;97055.88;4229884;28;5640;-72
2023/05/17 12:37:56;;;;;;;;;;;;;;;16.29;40.55;97032.09;4232614;28;5815;-70
2023/05/17 12:40:01;;;;;;;;;;;;;;;16.26;40.69;97027.22;4228698;28;5689;-69
2023/05/17 12:42:05;;;;;;;;;;;;;;;16.27;40.57;97035.00;4235873;28;5625;-65
2023/05/17 12:44:08;;;;;;;;;;;;;;;16.28;40.56;97031.28;4228825;28;5677;-65
2023/05/17 12:46:17;;;;;;;;;;;;;;;16.32;40.50;97018.34;4227591;28;5124;-65
2023/05/17 12:48:25;;;;;;;;;;;;;;;16.32;40.73;97018.34;4235976;28;7668;-66
2023/05/17 12:50:30;;;;;;;;;;;;;;;16.33;40.52;97016.47;4236485;28;5919;-65
2023/05/17 12:52:34;;;;;;;;;;;;;;;16.35;40.63;97004.53;4235151;28;5606;-66
2023/05/17 12:54:39;;;;;;;;;;;;;;;16.39;40.71;97021.72;4236302;28;5598;-66
2023/05/17 12:56:43;;;;;;;;;;;;;;;16.39;40.42;97031.56;4232915;28;6345;-67
2023/05/17 12:59:04;;;;;;;;;;;;;;;16.39;40.61;97026.22;4236767;28;5622;-66
2023/05/17 13:01:12;;;;;;;;;;;;;;;16.41;40.64;97026.81;4235402;28;5714;-67
2023/05/17 13:03:16;;;;;;;;;;;;;;;16.37;40.46;97007.78;4231028;28;5677;-66
2023/05/17 13:05:20;;;;;;;;;;;;;;;16.35;40.36;97025.88;4225776;28;5628;-66
2023/05/17 13:07:24;;;;;;;;;;;;;;;16.33;40.57;97011.94;4235410;28;5910;-65
2023/05/17 13:09:29;;;;;;;;;;;;;;;16.36;40.39;97010.69;4234889;28;5773;-66
2023/05/17 13:11:34;;;;;;;;;;;;;;;16.37;40.30;97022.97;4232190;28;5760;-66
2023/05/17 13:13:37;;;;;;;;;;;;;;;16.35;40.58;97020.53;4236430;28;5606;-66
2023/05/17 13:15:40;;;;;;;;;;;;;;;16.27;40.33;97026.16;4226978;28;5722;-66
2023/05/17 13:17:49;;;;;;;;;;;;;;;16.25;40.25;97031.72;4224586;28;5696;-66
2023/05/17 13:20:03;;;;;;;;;;;;;;;16.24;40.35;97026.63;4220586;28;5678;-66
2023/05/17 13:22:12;;;;;;;;;;;;;;;16.23;40.44;97025.81;4235344;28;5704;-66
2023/05/17 13:24:15;;;;;;;;;;;;;;;16.20;40.28;97044.13;4226369;28;5841;-66
2023/05/17 13:26:20;;;;;;;;;;;;;;;16.15;40.31;97033.28;4226891;28;5756;-66
2023/05/17 13:28:24;;;;;;;;;;;;;;;16.15;40.27;97020.78;4234491;28;5102;-66
2023/05/17 13:30:27;;;;;;;;;;;;;;;16.21;40.29;97033.22;4226191;28;5602;-65
2023/05/17 13:32:31;;;;;;;;;;;;;;;16.23;40.14;97025.81;4225978;28;5673;-65
2023/05/17 13:34:33;;;;;;;;;;;;;;;16.23;40.16;97014.31;4233387;28;5674;-65
2023/05/17 13:36:38;;;;;;;;;;;;;;;16.25;40.10;97009.56;4232501;28;5687;-65
2023/05/17 13:38:40;;;;;;;;;;;;;;;16.28;40.15;97015.28;4231096;28;5510;-64
2023/05/17 13:40:43;;;;;;;;;;;;;;;16.36;40.10;97016.03;4227630;28;6402;-66
2023/05/17 13:42:46;;;;;;;;;;;;;;;16.36;40.06;97040.03;4234966;28;5664;-65
2023/05/17 13:44:50;;;;;;;;;;;;;;;16.36;39.95;97024.84;4238654;27;5598;-67
2023/05/17 13:46:52;;;;;;;;;;;;;;;16.34;39.89;97031.44;4230110;28;5689;-67
2023/05/17 13:48:55;;;;;;;;;;;;;;;16.34;39.75;97032.25;4227371;28;5677;-66
2023/05/17 13:50:59;;;;;;;;;;;;;;;16.35;39.86;97017.06;4228492;28;5785;-65
2023/05/17 13:53:04;;;;;;;;;;;;;;;16.38;40.20;97021.94;4234298;28;5729;-65
2023/05/17 13:55:08;;;;;;;;;;;;;;;16.34;39.71;97018.09;4227955;28;5884;-65
2023/05/17 13:57:12;;;;;;;;;;;;;;;16.32;39.72;97005.00;4235821;28;5602;-65
2023/05/17 13:59:15;;;;;;;;;;;;;;;16.35;39.89;97007.19;4232218;28;5598;-66
2023/05/17 14:01:18;;;;;;;;;;;;;;;16.36;39.62;97016.84;4221040;28;5712;-66
2023/05/17 14:03:21;;;;;;;;;;;;;;;16.29;39.72;97003.56;4235189;28;5606;-66
2023/05/17 14:05:24;;;;;;;;;;;;;;;16.26;39.63;97001.34;4234985;28;5943;-66
2023/05/17 14:07:28;;;;;;;;;;;;;;;16.27;39.75;97002.97;4227559;28;5681;-66
2023/05/17 14:09:33;;;;;;;;;;;;;;;16.29;39.82;97000.91;4231973;28;5605;-66
2023/05/17 14:11:36;;;;;;;;;;;;;;;16.33;39.65;97008.47;4219768;28;6014;-67
2023/05/17 14:13:39;;;;;;;;;;;;;;;16.37;39.67;97015.78;4225487;27;7091;-67
2023/05/17 14:15:42;;;;;;;;;;;;;;;16.45;39.89;97014.69;4231633;27;5606;-66
2023/05/17 14:17:45;;;;;;;;;;;;;;;16.50;39.84;97012.13;4228846;27;5716;-69
2023/05/17 14:19:48;;;;;;;;;;;;;;;16.52;40.07;97010.88;4227628;28;5782;-69
2023/05/17 14:21:51;;;;;;;;;;;;;;;16.57;39.78;97018.22;4227013;28;5594;-68
2023/05/17 14:23:55;;;;;;;;;;;;;;;16.62;39.84;97018.34;4227075;28;5609;-67
2023/05/17 14:26:01;;;;;;;;;;;;;;;16.66;39.68;97022.22;4228558;27;5704;-66
2023/05/17 14:28:04;;;;;;;;;;;;;;;16.65;39.67;97031.25;4225833;28;5751;-67
2023/05/17 14:30:08;;;;;;;;;;;;;;;16.65;39.75;97020.59;4224439;28;5792;-68
2023/05/17 14:32:14;;;;;;;;;;;;;;;16.72;39.53;97020.50;4224041;27;5813;-67
2023/05/17 14:34:17;;;;;;;;;;;;;;;16.72;39.44;97028.50;4229854;28;7262;-68
2023/05/17 14:36:20;;;;;;;;;;;;;;;16.63;39.34;97032.50;4226873;28;5749;-68
2023/05/17 14:38:23;;;;;;;;;;;;;;;16.54;39.58;97003.47;4225981;27;5602;-67
2023/05/17 14:40:26;;;;;;;;;;;;;;;16.53;39.53;97020.50;4222966;27;5606;-66
2023/05/17 14:42:31;;;;;;;;;;;;;;;16.55;39.26;97020.31;4224037;27;5222;-66
2023/05/17 14:44:37;;;;;;;;;;;;;;;16.51;39.38;97013.75;4229073;27;7686;-66
2023/05/17 14:46:40;;;;;;;;;;;;;;;16.49;39.68;97031.84;4225109;28;5602;-67
2023/05/17 14:48:43;;;;;;;;;;;;;;;16.53;39.60;97009.00;4221361;28;5706;-66
2023/05/17 14:50:46;;;;;;;;;;;;;;;16.62;39.48;97038.88;4228466;28;5881;-67
2023/05/17 14:52:49;;;;;;;;;;;;;;;16.57;39.55;97024.38;4226783;28;6304;-66
2023/05/17 14:54:52;;;;;;;;;;;;;;;16.54;39.50;97029.34;4210088;28;5835;-67
2023/05/17 14:56:56;;;;;;;;;;;;;;;16.60;39.45;97017.75;4225847;28;5749;-67
2023/05/17 14:59:01;;;;;;;;;;;;;;;16.65;39.51;97030.41;4224637;28;5688;-66
2023/05/17 15:01:05;;;;;;;;;;;;;;;16.65;39.34;97019.72;4222863;28;5716;-66
2023/05/17 15:03:09;;;;;;;;;;;;;;;16.61;39.38;97019.38;4224162;28;5677;-67
2023/05/17 15:05:12;;;;;;;;;;;;;;;16.58;39.37;97027.84;4228517;28;5602;-66
2023/05/17 15:07:15;;;;;;;;;;;;;;;16.53;39.23;97059.72;4230902;28;5652;-65
2023/05/17 15:09:21;;;;;;;;;;;;;;;16.50;39.31;97020.97;4223001;28;5764;-65
2023/05/17 15:11:24;;;;;;;;;;;;;;;16.47;39.29;97032.09;4223784;28;5629;-66